This is the latest recevied weather packets stored in our database for station/object OE5RBO. If no packets are shown the sender has not sent any weather packets the latest 10 day(s).
| Time | Temp. | Humidity | Pressure | Rain* | Wind** | Luminosity | Snow |
|---|---|---|---|---|---|---|---|
| 1777961912 | 20° C | 66% | 1008.3 hPa | 0 mm | - | - | - |
| 1777961312 | 19.44° C | 68% | 1008.5 hPa | 0 mm | - | - | - |
| 1777960712 | 18.33° C | 70% | 1008.4 hPa | 0 mm | - | - | - |
| 1777959511 | 16.67° C | 78% | 1008.4 hPa | 0 mm | - | - | - |
| 1777958911 | 16.67° C | 82% | 1008.4 hPa | 0 mm | - | - | - |
| 1777958310 | 14.44° C | 87% | 1008.5 hPa | 0 mm | - | - | - |
| 1777957710 | 12.78° C | 92% | 1008.4 hPa | 0 mm | - | - | - |
| 1777956509 | 12.22° C | 90% | 1008.5 hPa | 0 mm | - | - | - |
| 1777955909 | 13.33° C | 87% | 1008.7 hPa | 0 mm | - | - | - |
| 1777955308 | 12.78° C | 91% | 1008.7 hPa | 0 mm | - | - | - |
| 1777954708 | 12.78° C | 91% | 1008.8 hPa | 0 mm | - | - | - |
| 1777954108 | 13.33° C | 88% | 1008.7 hPa | 0 mm | - | - | - |
| 1777953508 | 13.89° C | 85% | 1008.7 hPa | 0 mm | - | - | - |
| 1777952907 | 13.89° C | 86% | 1008.5 hPa | 0 mm | - | - | - |
| 1777951706 | 14.44° C | 85% | 1008.8 hPa | 0 mm | - | - | - |
| 1777951106 | 14.44° C | 84% | 1008.9 hPa | 0 mm | - | - | - |
| 1777950506 | 15° C | 83% | 1009 hPa | 0 mm | - | - | - |
| 1777949305 | 15.56° C | 81% | 1009.1 hPa | 0 mm | - | - | - |
| 1777948104 | 15.56° C | 81% | 1009.3 hPa | 0 mm | - | - | - |
| 1777947504 | 15.56° C | 81% | 1009.3 hPa | 0 mm | - | - | - |
| 1777946904 | 15.56° C | 81% | 1009.3 hPa | 0 mm | - | - | - |
| 1777946303 | 16.11° C | 80% | 1009.3 hPa | 0 mm | - | - | - |
| 1777945703 | 16.11° C | 79% | 1009.3 hPa | 0 mm | - | - | - |
| 1777945102 | 16.11° C | 79% | 1009.4 hPa | 0 mm | - | - | - |
| 1777944502 | 16.11° C | 79% | 1009.5 hPa | 0 mm | - | - | - |
* Rain since midnight (hover to see other rain measurements)
** Current wind speed in m/s (hover to see current wind gust speed)